Time;durP1;ratioP1;P1;durP2;ratioP2;P2;SDS_P1;SDS_P2;PMS_P1;PMS_P2;Temp;Humidity;BMP_temperature;BMP_pressure;BME280_temperature;BME280_humidity;BME280_pressure;Samples;Min_cycle;Max_cycle;Signal;HPM_P1;HPM_P2
2022/03/03 00:00:26;;;;;;;17.95;16.05;;;;;;;8.67;39.23;101504.59;4991946;28;20064;-83
2022/03/03 00:02:53;;;;;;;22.10;16.02;;;;;;;9.11;39.39;101576.72;4979231;28;20391;-81
2022/03/03 00:05:20;;;;;;;29.92;16.30;;;;;;;9.12;39.43;101576.59;4972530;28;20061;-82
2022/03/03 00:07:46;;;;;;;19.58;15.35;;;;;;;9.00;39.37;101558.88;4972244;28;20046;-82
2022/03/03 00:10:13;;;;;;;22.45;16.02;;;;;;;9.03;39.34;101556.03;4989620;28;20115;-83
2022/03/03 00:12:40;;;;;;;17.65;14.48;;;;;;;9.16;40.25;101577.25;4972194;28;20073;-84
2022/03/03 00:15:07;;;;;;;19.23;16.08;;;;;;;8.88;39.98;101527.91;4972403;28;20054;-82
2022/03/03 00:17:34;;;;;;;17.88;15.27;;;;;;;8.42;39.55;101448.91;4972242;28;20058;-83
2022/03/03 00:20:01;;;;;;;18.33;15.10;;;;;;;9.15;39.95;101572.88;4989611;28;20062;-83
2022/03/03 00:22:27;;;;;;;17.70;15.32;;;;;;;9.15;39.61;101579.06;4987771;28;20476;-82
2022/03/03 00:24:54;;;;;;;21.80;15.27;;;;;;;7.81;39.61;101354.13;4971967;28;20368;-81
2022/03/03 00:27:21;;;;;;;18.92;15.75;;;;;;;8.86;39.23;101521.88;4989179;28;20063;-83
2022/03/03 00:29:47;;;;;;;18.52;15.30;;;;;;;9.15;39.39;101563.16;4972002;28;20054;-82
2022/03/03 00:32:14;;;;;;;20.45;15.73;;;;;;;8.99;39.34;101536.00;4988729;28;20534;-82
2022/03/03 00:34:41;;;;;;;19.00;15.32;;;;;;;9.15;39.75;101568.47;4971841;28;20611;-82
2022/03/03 00:37:08;;;;;;;18.08;15.18;;;;;;;8.60;39.70;101476.81;4989484;28;20057;-83
2022/03/03 00:39:35;;;;;;;18.95;14.98;;;;;;;9.13;39.64;101570.34;4971682;28;20121;-83
2022/03/03 00:42:02;;;;;;;19.35;15.70;;;;;;;8.99;40.94;101546.59;4972352;28;20054;-83
2022/03/03 00:44:28;;;;;;;19.20;15.50;;;;;;;9.17;39.71;101560.38;4972306;28;20066;-81
2022/03/03 00:46:55;;;;;;;24.60;14.77;;;;;;;9.16;40.08;101554.25;4972161;28;20046;-82
2022/03/03 00:49:22;;;;;;;17.83;15.93;;;;;;;8.84;40.72;101502.63;4971737;28;20054;-81
2022/03/03 00:51:49;;;;;;;15.88;14.18;;;;;;;9.02;40.07;101535.78;4971996;28;20440;-82
2022/03/03 00:54:15;;;;;;;17.90;15.57;;;;;;;9.15;40.18;101552.56;4988532;28;20511;-81
2022/03/03 00:56:42;;;;;;;19.25;15.45;;;;;;;9.15;39.88;101555.22;4988691;28;20054;-83
2022/03/03 00:59:10;;;;;;;18.23;16.33;;;;;;;9.13;39.82;101551.81;4971503;28;20093;-83
2022/03/03 01:01:37;;;;;;;21.85;15.88;;;;;;;9.13;40.64;101562.41;4973478;28;20137;-82
2022/03/03 01:04:04;;;;;;;19.27;15.10;;;;;;;8.81;41.39;101505.44;4991496;28;20052;-81
2022/03/03 01:06:31;;;;;;;19.60;16.42;;;;;;;8.46;41.28;101450.44;4991078;28;20245;-81
2022/03/03 01:08:57;;;;;;;21.10;15.80;;;;;;;8.94;41.04;101536.31;4991381;28;20128;-81
2022/03/03 01:11:24;;;;;;;19.10;16.05;;;;;;;8.91;41.07;101527.72;5008375;28;20156;-80
2022/03/03 01:13:52;;;;;;;21.08;15.95;;;;;;;8.91;41.42;101527.72;4991433;28;20049;-81
2022/03/03 01:16:19;;;;;;;18.25;15.20;;;;;;;8.99;41.24;101543.94;5007639;28;20083;-82
2022/03/03 01:18:46;;;;;;;27.15;15.50;;;;;;;9.04;42.13;101555.06;5008346;28;20054;-81
2022/03/03 01:21:12;;;;;;;17.88;15.15;;;;;;;9.02;41.93;101556.13;4990938;28;20127;-81
2022/03/03 01:23:39;;;;;;;17.17;14.48;;;;;;;8.72;41.77;101507.75;4990973;28;20104;-82
2022/03/03 01:26:07;;;;;;;20.63;15.40;;;;;;;8.99;41.93;101554.53;4991429;28;20052;-81
2022/03/03 01:28:33;;;;;;;21.70;15.93;;;;;;;8.92;42.21;101550.59;4991358;28;20246;-81
2022/03/03 01:31:00;;;;;;;18.88;14.52;;;;;;;8.86;40.85;101529.81;4991007;28;20503;-83
2022/03/03 01:33:27;;;;;;;19.05;15.15;;;;;;;9.03;40.47;101542.78;4991113;28;20255;-81
2022/03/03 01:35:54;;;;;;;17.88;13.73;;;;;;;8.53;40.83;101446.41;4992886;28;20077;-82
2022/03/03 01:38:21;;;;;;;18.42;13.13;;;;;;;8.70;41.23;101471.75;5009796;28;20487;-81
2022/03/03 01:40:47;;;;;;;14.50;12.40;;;;;;;9.17;40.52;101539.19;4990654;28;20057;-82
2022/03/03 01:43:14;;;;;;;14.45;12.57;;;;;;;9.08;40.60;101523.91;4990468;28;20076;-81
2022/03/03 01:45:41;;;;;;;16.05;13.55;;;;;;;9.19;40.97;101551.38;4989386;28;20133;-81
2022/03/03 01:48:07;;;;;;;17.40;13.07;;;;;;;9.15;41.32;101541.97;4990295;28;20054;-81
2022/03/03 01:50:34;;;;;;;15.50;13.55;;;;;;;9.17;41.60;101549.78;4990234;28;20141;-81
2022/03/03 01:53:01;;;;;;;16.17;13.40;;;;;;;8.89;41.67;101503.16;4990568;28;20060;-80
2022/03/03 01:55:27;;;;;;;16.17;12.75;;;;;;;8.85;42.31;101496.34;5007747;28;20653;-81
2022/03/03 01:57:57;;;;;;;14.85;13.13;;;;;;;9.04;41.87;101520.63;4990809;28;20402;-81
2022/03/03 02:00:23;;;;;;;14.18;12.50;;;;;;;9.06;41.83;101515.25;4990332;28;20774;-82
2022/03/03 02:02:50;;;;;;;15.27;11.80;;;;;;;9.03;41.44;101510.13;4999034;28;20104;-82
2022/03/03 02:05:17;;;;;;;14.15;12.50;;;;;;;8.82;41.67;101465.63;5006822;28;20104;-82
2022/03/03 02:07:45;;;;;;;13.93;12.52;;;;;;;8.76;41.67;101450.16;5009229;28;20266;-82
2022/03/03 02:10:12;;;;;;;14.73;12.25;;;;;;;8.27;42.78;101380.16;5009945;28;20143;-82
2022/03/03 02:12:39;;;;;;;13.15;11.82;;;;;;;8.63;43.02;101450.13;5009850;28;20053;-82
2022/03/03 02:15:17;;;;;;;12.25;11.02;;;;;;;7.93;43.15;101333.97;5016647;28;20088;-81
2022/03/03 02:17:43;;;;;;;14.57;12.32;;;;;;;8.59;42.73;101430.13;4988196;28;20425;-81
2022/03/03 02:20:30;;;;;;;13.40;11.70;;;;;;;8.56;42.07;101417.09;5005881;28;20437;-82
2022/03/03 02:22:58;;;;;;;15.70;11.57;;;;;;;8.83;42.10;101451.44;4987441;28;20042;-81
2022/03/03 02:25:26;;;;;;;15.38;11.60;;;;;;;9.10;42.26;101492.88;4986738;28;20052;-81
2022/03/03 02:27:53;;;;;;;19.52;11.95;;;;;;;8.59;42.73;101410.75;5004725;28;20078;-82
2022/03/03 02:30:19;;;;;;;16.20;12.70;;;;;;;8.63;43.78;101421.03;5007027;28;20145;-82
2022/03/03 02:32:47;;;;;;;13.63;12.15;;;;;;;8.84;44.13;101466.38;4989034;28;20104;-82
2022/03/03 02:35:13;;;;;;;13.30;11.90;;;;;;;8.82;44.72;101459.50;5006222;28;20045;-82
2022/03/03 02:37:44;;;;;;;15.27;12.25;;;;;;;8.74;44.47;101458.22;4988121;28;20668;-81
2022/03/03 02:40:20;;;;;;;16.45;12.15;;;;;;;8.87;44.63;101473.28;4988704;28;20491;-82
2022/03/03 02:42:51;;;;;;;13.25;11.40;;;;;;;8.72;44.92;101446.88;5005874;28;20057;-82
2022/03/03 02:45:18;;;;;;;14.27;12.77;;;;;;;8.51;45.38;101411.28;4989115;28;20057;-82
2022/03/03 02:47:47;;;;;;;14.13;10.88;;;;;;;8.58;45.56;101425.78;4988833;28;20064;-81
2022/03/03 02:50:16;;;;;;;12.57;11.32;;;;;;;8.09;43.71;101347.03;4989313;28;20129;-81
2022/03/03 02:52:43;;;;;;;13.35;11.65;;;;;;;7.95;44.81;101320.66;4988937;28;20050;-83
2022/03/03 02:55:12;;;;;;;13.52;11.90;;;;;;;8.96;43.74;101462.06;4989336;28;20133;-82
2022/03/03 02:57:54;;;;;;;13.00;10.90;;;;;;;8.80;44.37;101440.22;5009914;28;20045;-83
2022/03/03 03:00:21;;;;;;;12.88;11.40;;;;;;;8.91;44.64;101459.72;4991951;28;20046;-80
2022/03/03 03:02:48;;;;;;;12.68;11.38;;;;;;;8.84;44.41;101447.00;4979785;28;20574;-83
2022/03/03 03:05:15;;;;;;;14.02;12.57;;;;;;;8.73;44.85;101432.69;4973239;28;20054;-82
2022/03/03 03:07:42;;;;;;;14.57;12.48;;;;;;;8.69;44.62;101417.09;4991823;28;20043;-82
2022/03/03 03:10:08;;;;;;;17.60;11.95;;;;;;;8.31;44.72;101342.00;5012949;28;20041;-83
2022/03/03 03:12:35;;;;;;;16.65;12.57;;;;;;;8.68;44.84;101403.03;4994118;28;20064;-82
2022/03/03 03:15:03;;;;;;;12.75;11.40;;;;;;;8.84;45.90;101428.47;4973634;28;20078;-82
2022/03/03 03:17:30;;;;;;;12.65;11.35;;;;;;;7.98;45.29;101291.34;4989663;28;20101;-81
2022/03/03 03:19:57;;;;;;;16.70;12.82;;;;;;;7.56;45.17;101230.69;4972131;28;20548;-84
2022/03/03 03:22:23;;;;;;;15.27;11.90;;;;;;;8.77;46.18;101438.63;4973340;28;20132;-82
2022/03/03 03:24:50;;;;;;;15.27;11.48;;;;;;;8.52;45.95;101390.00;4973355;28;20165;-81
2022/03/03 03:27:17;;;;;;;16.05;12.43;;;;;;;8.93;45.37;101430.47;4990621;28;20080;-82
2022/03/03 03:29:43;;;;;;;14.15;12.57;;;;;;;8.02;44.56;101259.31;4989725;28;20054;-81
2022/03/03 03:32:10;;;;;;;16.38;11.63;;;;;;;8.53;43.52;101335.28;4989662;28;20477;-82
2022/03/03 03:34:36;;;;;;;13.57;10.90;;;;;;;8.56;45.50;101353.56;4972239;28;20125;-82
2022/03/03 03:37:03;;;;;;;13.52;11.57;;;;;;;8.68;46.09;101402.19;4989928;28;20051;-83
2022/03/03 03:39:30;;;;;;;13.82;12.05;;;;;;;8.85;46.49;101448.69;4993014;28;20050;-84
2022/03/03 03:41:57;;;;;;;14.02;11.85;;;;;;;8.59;47.05;101408.94;4974831;28;20336;-82
2022/03/03 03:44:23;;;;;;;14.55;11.90;;;;;;;8.67;46.67;101425.16;4975773;28;20086;-83
2022/03/03 03:46:50;;;;;;;15.05;12.57;;;;;;;8.79;46.47;101442.03;4974054;28;20057;-82
2022/03/03 03:49:16;;;;;;;13.95;12.02;;;;;;;8.28;47.13;101362.53;4971621;28;20052;-80
2022/03/03 03:51:43;;;;;;;14.65;11.35;;;;;;;8.15;45.51;101336.03;4970958;28;20058;-82
2022/03/03 03:54:10;;;;;;;14.07;12.55;;;;;;;8.78;46.89;101443.81;4971491;28;20579;-82
2022/03/03 03:56:36;;;;;;;15.15;11.30;;;;;;;8.73;46.06;101439.78;4971647;28;20077;-83
2022/03/03 03:59:03;;;;;;;13.43;11.75;;;;;;;8.47;45.24;101402.69;4972100;28;20054;-84
2022/03/03 04:01:31;;;;;;;13.52;12.13;;;;;;;8.42;45.24;101393.34;4989722;28;20073;-84
2022/03/03 04:03:58;;;;;;;13.05;11.60;;;;;;;8.53;45.50;101412.84;4972080;28;20078;-83
2022/03/03 04:06:24;;;;;;;16.52;12.32;;;;;;;8.23;46.02;101341.66;4971011;28;20060;-83
2022/03/03 04:08:51;;;;;;;16.30;12.10;;;;;;;8.22;46.34;101361.13;4971052;28;20416;-83
2022/03/03 04:11:17;;;;;;;13.68;11.48;;;;;;;7.56;46.39;101253.63;4971839;28;20412;-82
2022/03/03 04:13:44;;;;;;;14.48;11.27;;;;;;;8.58;45.90;101412.56;4971866;28;20591;-82
2022/03/03 04:16:11;;;;;;;13.15;11.75;;;;;;;8.71;45.48;101425.78;4989255;28;20519;-82
2022/03/03 04:18:38;;;;;;;15.48;12.43;;;;;;;8.56;45.40;101401.22;4971257;28;20050;-82
2022/03/03 04:21:05;;;;;;;13.48;11.07;;;;;;;8.58;45.21;101407.25;4970597;28;20144;-83
2022/03/03 04:23:32;;;;;;;13.85;11.52;;;;;;;8.72;45.42;101430.16;4988168;28;20054;-83
2022/03/03 04:25:58;;;;;;;14.27;12.60;;;;;;;8.59;45.51;101406.28;4988132;28;20496;-82
2022/03/03 04:28:25;;;;;;;13.88;11.88;;;;;;;8.28;45.65;101351.94;4970563;28;20422;-84
2022/03/03 04:30:52;;;;;;;14.98;12.23;;;;;;;8.56;45.53;101406.50;4987882;28;20145;-80
2022/03/03 04:33:18;;;;;;;15.07;12.52;;;;;;;8.50;46.28;101396.34;4970771;28;20050;-82
2022/03/03 04:35:50;;;;;;;15.65;12.52;;;;;;;8.75;45.13;101420.19;4970990;28;20046;-83
2022/03/03 04:38:16;;;;;;;17.45;12.45;;;;;;;8.82;44.74;101419.78;4970132;28;20407;-83
2022/03/03 04:40:43;;;;;;;15.88;12.85;;;;;;;8.84;44.88;101409.94;4969986;28;20158;-83
2022/03/03 04:43:10;;;;;;;13.65;12.25;;;;;;;8.78;45.68;101411.19;4988297;28;20047;-83
2022/03/03 04:45:36;;;;;;;15.60;12.25;;;;;;;8.54;46.04;101381.94;4988437;28;20415;-82
2022/03/03 04:48:03;;;;;;;16.48;12.50;;;;;;;8.70;46.32;101408.22;4988682;28;20398;-83
2022/03/03 04:50:30;;;;;;;14.95;12.43;;;;;;;8.16;45.23;101328.97;4987953;28;20149;-82
2022/03/03 04:52:57;;;;;;;16.17;13.00;;;;;;;8.75;45.79;101422.84;4988434;28;20081;-82
2022/03/03 04:55:24;;;;;;;15.88;13.35;;;;;;;8.72;46.11;101425.69;4988856;28;20043;-82
2022/03/03 04:57:51;;;;;;;13.85;12.15;;;;;;;8.42;46.85;101382.78;4971055;28;20053;-82
2022/03/03 05:00:18;;;;;;;14.75;12.65;;;;;;;8.54;47.15;101408.41;4988842;28;20082;-82
2022/03/03 05:02:44;;;;;;;15.13;12.95;;;;;;;7.95;46.45;101304.78;4981743;28;20144;-82
2022/03/03 05:05:11;;;;;;;15.77;12.55;;;;;;;7.76;46.04;101253.13;5008511;28;20050;-82
2022/03/03 05:07:38;;;;;;;15.77;13.32;;;;;;;8.76;45.27;101413.09;4990765;28;20081;-83
2022/03/03 05:10:05;;;;;;;19.35;13.20;;;;;;;8.48;44.97;101343.53;4990861;28;20132;-82
2022/03/03 05:12:32;;;;;;;16.80;13.20;;;;;;;8.67;45.11;101366.09;4990924;28;20061;-83
2022/03/03 05:14:59;;;;;;;13.70;12.30;;;;;;;8.87;45.57;101425.59;4990948;28;20081;-82
2022/03/03 05:17:25;;;;;;;14.27;12.20;;;;;;;8.50;46.80;101380.47;5008616;28;20053;-82
2022/03/03 05:19:52;;;;;;;14.70;11.52;;;;;;;8.64;47.37;101413.94;5008027;28;20046;-82
2022/03/03 05:22:18;;;;;;;20.30;14.10;;;;;;;8.37;46.95;101379.56;4990831;28;20060;-83
2022/03/03 05:24:49;;;;;;;16.63;13.57;;;;;;;8.37;47.02;101384.84;4990451;28;20046;-83
2022/03/03 05:27:17;;;;;;;15.90;13.18;;;;;;;8.42;47.28;101388.91;4990255;28;20703;-83
2022/03/03 05:29:43;;;;;;;19.20;12.27;;;;;;;8.03;47.04;101332.41;4990182;28;20427;-82
2022/03/03 05:32:10;;;;;;;14.27;12.15;;;;;;;8.71;46.48;101424.03;4990520;28;20046;-82
2022/03/03 05:34:37;;;;;;;16.23;12.73;;;;;;;8.59;46.69;101402.81;4991156;28;20133;-82
2022/03/03 05:37:06;;;;;;;14.45;12.40;;;;;;;8.63;45.85;101407.78;4991094;28;20057;-82
2022/03/03 05:39:37;;;;;;;15.45;11.77;;;;;;;8.46;46.22;101385.13;4992047;28;20045;-82
2022/03/03 05:42:04;;;;;;;17.17;11.98;;;;;;;8.37;46.88;101390.16;5007504;28;20181;-83
2022/03/03 05:44:31;;;;;;;16.23;12.82;;;;;;;8.37;47.07;101395.44;5007332;28;20108;-83
2022/03/03 05:46:59;;;;;;;14.77;12.60;;;;;;;7.83;47.36;101309.94;5009023;28;20080;-83
2022/03/03 05:49:29;;;;;;;14.13;11.98;;;;;;;8.08;47.23;101364.69;4992497;28;20050;-82
2022/03/03 05:51:56;;;;;;;19.67;14.43;;;;;;;8.25;47.24;101392.69;4992807;28;20117;-81
2022/03/03 05:54:22;;;;;;;17.55;12.65;;;;;;;7.59;47.03;101282.47;4991420;28;20140;-82
2022/03/03 05:56:52;;;;;;;17.60;12.55;;;;;;;7.95;47.41;101347.94;4989403;28;20495;-82
2022/03/03 05:59:22;;;;;;;17.20;13.00;;;;;;;8.37;47.47;101419.25;4988657;28;20054;-82
2022/03/03 06:01:49;;;;;;;17.20;13.27;;;;;;;8.35;47.33;101414.91;4987549;28;20049;-82
2022/03/03 06:04:16;;;;;;;20.50;16.77;;;;;;;8.11;48.30;101390.94;4987385;28;20418;-82
2022/03/03 06:07:05;;;;;;;17.00;14.52;;;;;;;8.05;47.69;101385.19;4987809;28;20049;-83
2022/03/03 06:09:33;;;;;;;16.58;12.65;;;;;;;7.76;48.10;101335.06;4988733;28;20057;-82
2022/03/03 06:12:06;;;;;;;16.65;12.93;;;;;;;8.32;47.49;101427.50;5006948;28;20637;-84
2022/03/03 06:14:45;;;;;;;19.02;14.25;;;;;;;8.30;47.97;101432.91;5007028;28;20041;-82
2022/03/03 06:17:11;;;;;;;16.65;13.60;;;;;;;8.31;48.14;101417.88;4989472;28;20141;-82
2022/03/03 06:19:42;;;;;;;14.82;12.48;;;;;;;8.40;46.98;101425.22;4989488;28;20052;-83
2022/03/03 06:22:09;;;;;;;16.52;13.63;;;;;;;8.31;47.86;101413.41;4989277;28;20073;-82
2022/03/03 06:24:37;;;;;;;14.52;13.02;;;;;;;8.19;47.23;101395.72;4989269;28;20518;-81
2022/03/03 06:27:04;;;;;;;17.98;14.27;;;;;;;8.45;47.05;101432.88;5006732;28;20347;-82
2022/03/03 06:29:32;;;;;;;17.67;14.32;;;;;;;8.28;47.35;101413.63;4988297;28;20141;-82
2022/03/03 06:31:59;;;;;;;20.30;14.90;;;;;;;8.41;47.79;101440.16;4986120;28;20521;-80
2022/03/03 06:34:26;;;;;;;15.80;13.82;;;;;;;7.99;47.72;101383.81;5004595;28;20559;-80
2022/03/03 06:36:53;;;;;;;21.30;13.77;;;;;;;7.70;47.59;101327.56;4987888;28;20112;-80
2022/03/03 06:39:19;;;;;;;18.75;14.73;;;;;;;8.41;47.74;101452.53;4989485;28;20595;-81
2022/03/03 06:41:50;;;;;;;16.15;14.00;;;;;;;8.05;47.65;101379.91;5009412;28;20050;-82
2022/03/03 06:44:16;;;;;;;17.45;13.23;;;;;;;8.38;47.88;101423.59;5019844;28;20042;-82
2022/03/03 06:46:44;;;;;;;17.10;14.73;;;;;;;7.94;48.07;101354.19;5009894;28;20085;-81
2022/03/03 06:49:12;;;;;;;16.25;14.05;;;;;;;8.28;48.09;101416.28;5020630;28;20088;-81
2022/03/03 06:52:01;;;;;;;19.92;14.75;;;;;;;8.20;48.04;101401.84;4999852;28;20356;-81
2022/03/03 06:54:32;;;;;;;17.90;13.77;;;;;;;8.41;48.52;101434.00;4993329;28;20049;-78
2022/03/03 06:56:58;;;;;;;18.63;14.52;;;;;;;8.31;48.46;101426.66;4990774;28;20060;-80
2022/03/03 06:59:27;;;;;;;21.13;15.98;;;;;;;7.80;48.58;101339.22;4990541;28;20498;-80
2022/03/03 07:01:55;;;;;;;18.17;14.27;;;;;;;8.34;48.17;101429.09;4990191;28;20504;-80
2022/03/03 07:04:23;;;;;;;22.08;15.30;;;;;;;8.22;48.36;101403.44;4989873;28;20053;-80
2022/03/03 07:06:50;;;;;;;18.55;14.95;;;;;;;8.52;48.22;101447.38;4989842;28;20120;-81
2022/03/03 07:09:19;;;;;;;18.20;15.05;;;;;;;8.38;48.01;101410.38;5006863;28;20145;-82
2022/03/03 07:11:47;;;;;;;19.10;15.40;;;;;;;8.39;47.43;101398.84;5005521;28;20475;-83
2022/03/03 07:14:14;;;;;;;19.95;14.50;;;;;;;8.78;47.31;101443.81;4988377;28;20471;-84
2022/03/03 07:16:42;;;;;;;17.83;15.00;;;;;;;8.84;47.52;101444.38;4988076;28;20062;-82
2022/03/03 07:19:39;;;;;;;20.63;15.52;;;;;;;8.90;47.25;101452.72;4988565;28;20500;-82
2022/03/03 07:22:12;;;;;;;25.60;15.93;;;;;;;8.97;46.85;101454.00;4980475;28;20803;-81
2022/03/03 07:24:41;;;;;;;21.70;15.30;;;;;;;9.04;47.31;101450.94;4988816;28;20331;-81
2022/03/03 07:27:16;;;;;;;19.23;15.98;;;;;;;9.04;47.07;101446.47;4988784;28;20042;-81
2022/03/03 07:29:47;;;;;;;28.10;17.25;;;;;;;9.13;46.75;101456.44;4989096;28;20111;-81
2022/03/03 07:32:17;;;;;;;21.98;16.00;;;;;;;9.16;47.32;101445.63;4989384;28;20204;-81
2022/03/03 07:34:55;;;;;;;24.13;15.73;;;;;;;9.23;47.95;101447.88;5006941;28;20137;-80
2022/03/03 07:37:30;;;;;;;21.98;15.10;;;;;;;9.10;47.33;101427.53;4989126;28;20100;-80
2022/03/03 07:40:05;;;;;;;24.52;15.18;;;;;;;9.18;48.12;101438.44;4988728;28;20590;-81
2022/03/03 07:42:32;;;;;;;19.88;14.65;;;;;;;9.14;47.80;101439.59;4989472;28;20539;-81
2022/03/03 07:45:04;;;;;;;23.48;15.98;;;;;;;8.74;48.52;101378.78;4993739;28;20724;-81
2022/03/03 07:47:32;;;;;;;24.83;15.90;;;;;;;9.14;49.08;101444.88;4993669;28;20054;-81
2022/03/03 07:49:59;;;;;;;32.63;17.67;;;;;;;9.10;48.67;101438.13;4993134;28;20056;-80
2022/03/03 07:52:28;;;;;;;21.88;16.73;;;;;;;9.16;48.24;101448.28;5010753;28;20579;-81
2022/03/03 07:54:56;;;;;;;21.55;16.58;;;;;;;9.17;48.46;101452.63;4994209;28;20052;-80
2022/03/03 07:57:32;;;;;;;22.23;16.58;;;;;;;9.14;48.33;101447.53;4995692;28;20046;-80
2022/03/03 08:00:05;;;;;;;23.85;16.63;;;;;;;9.04;48.51;101427.94;4996528;28;20137;-80
2022/03/03 08:02:34;;;;;;;22.27;16.23;;;;;;;9.04;48.08;101404.09;4993719;28;20405;-79
2022/03/03 08:05:04;;;;;;;21.73;16.77;;;;;;;8.98;48.89;101397.44;5010332;28;20077;-81
2022/03/03 08:07:38;;;;;;;23.35;16.90;;;;;;;9.31;48.76;101446.34;5010277;28;20100;-80
2022/03/03 08:10:06;;;;;;;21.80;16.40;;;;;;;9.43;48.10;101455.25;4992828;28;20060;-81
2022/03/03 08:12:33;;;;;;;23.80;17.02;;;;;;;8.64;48.11;101319.50;4992650;28;20116;-79
2022/03/03 08:15:00;;;;;;;22.15;17.35;;;;;;;9.31;48.15;101405.75;4992238;28;20147;-81
2022/03/03 08:17:26;;;;;;;27.88;18.20;;;;;;;9.66;47.99;101450.09;5009544;28;20086;-80
2022/03/03 08:19:55;;;;;;;20.88;17.23;;;;;;;9.65;47.01;101436.00;4992135;28;20076;-81
2022/03/03 08:22:30;;;;;;;25.00;16.58;;;;;;;9.77;46.97;101447.53;5009136;28;20484;-81
2022/03/03 08:24:59;;;;;;;22.25;17.05;;;;;;;9.87;46.51;101443.25;4991885;28;20041;-82
2022/03/03 08:27:27;;;;;;;21.70;16.30;;;;;;;9.96;46.44;101445.25;5009084;28;20137;-81
2022/03/03 08:30:00;;;;;;;28.95;18.05;;;;;;;9.89;46.54;101436.03;5008595;28;20133;-82
2022/03/03 08:32:40;;;;;;;23.33;17.50;;;;;;;9.88;46.54;101426.41;5008708;28;20038;-82
2022/03/03 08:35:21;;;;;;;26.08;17.92;;;;;;;10.03;45.31;101443.84;4991248;28;20407;-81
2022/03/03 08:38:03;;;;;;;22.40;17.02;;;;;;;10.10;45.18;101438.06;5008731;28;20324;-82
2022/03/03 08:40:45;;;;;;;23.45;17.88;;;;;;;9.58;45.01;101329.56;4990021;28;20054;-81
2022/03/03 08:43:16;;;;;;;18.65;16.50;;;;;;;9.89;44.39;101368.91;4991035;28;20050;-82
2022/03/03 08:45:43;;;;;;;20.65;16.33;;;;;;;10.43;42.05;101438.25;4991121;28;20463;-82
2022/03/03 08:48:14;;;;;;;18.20;15.65;;;;;;;10.46;40.70;101430.09;4990762;28;20046;-83
2022/03/03 08:50:42;;;;;;;22.37;17.07;;;;;;;10.66;40.33;101446.31;5007785;28;20494;-82
2022/03/03 08:53:09;;;;;;;20.40;15.80;;;;;;;10.66;39.58;101428.56;4990577;28;20076;-83
2022/03/03 08:55:38;;;;;;;19.50;17.13;;;;;;;10.82;39.45;101438.84;4990508;28;20061;-83
2022/03/03 08:58:06;;;;;;;22.50;16.83;;;;;;;10.92;39.40;101449.63;4990597;28;20073;-82
2022/03/03 09:00:33;;;;;;;20.60;16.13;;;;;;;10.95;38.85;101438.78;4990748;28;20144;-82
2022/03/03 09:03:00;;;;;;;20.48;15.93;;;;;;;10.99;38.96;101440.22;5008017;28;20054;-80
2022/03/03 09:05:30;;;;;;;20.40;16.15;;;;;;;10.91;39.27;101437.31;5008401;28;20050;-82
2022/03/03 09:07:58;;;;;;;20.33;16.58;;;;;;;11.04;38.24;101439.84;5008073;28;20053;-82
2022/03/03 09:10:25;;;;;;;19.05;15.07;;;;;;;10.90;38.30;101423.19;4990710;28;20385;-81
2022/03/03 09:12:54;;;;;;;18.55;15.05;;;;;;;10.97;37.28;101418.25;4991195;28;20415;-81
2022/03/03 09:15:21;;;;;;;23.48;15.70;;;;;;;11.07;37.75;101421.03;4980290;28;20512;-82
2022/03/03 09:17:47;;;;;;;20.98;15.98;;;;;;;11.12;38.26;101405.59;4970992;28;20108;-82
2022/03/03 09:20:15;;;;;;;19.02;15.93;;;;;;;10.90;38.00;101372.72;4970989;28;20441;-81
2022/03/03 09:22:44;;;;;;;20.67;16.35;;;;;;;11.40;36.83;101430.81;4971408;28;20054;-83
2022/03/03 09:25:11;;;;;;;20.02;16.20;;;;;;;11.32;37.02;101396.03;4971304;28;20184;-83
2022/03/03 09:27:38;;;;;;;23.02;16.05;;;;;;;10.50;36.32;101266.09;4972545;28;20132;-83
2022/03/03 09:30:07;;;;;;;17.60;15.00;;;;;;;11.53;37.14;101430.69;4987954;28;20061;-83
2022/03/03 09:32:35;;;;;;;21.15;16.77;;;;;;;11.65;35.39;101437.69;4970979;28;20390;-83
2022/03/03 09:35:03;;;;;;;22.90;18.35;;;;;;;11.29;36.35;101354.59;4970248;28;20074;-84
2022/03/03 09:37:30;;;;;;;20.50;16.63;;;;;;;11.81;36.36;101417.84;4986380;28;20057;-84
2022/03/03 09:39:57;;;;;;;23.00;17.30;;;;;;;10.95;35.79;101266.09;4970310;28;20408;-80
2022/03/03 09:42:31;;;;;;;26.42;17.02;;;;;;;11.93;35.54;101400.91;4970721;28;20417;-83
2022/03/03 09:44:59;;;;;;;19.73;16.33;;;;;;;12.01;35.94;101393.13;4986654;28;20046;-83
2022/03/03 09:47:26;;;;;;;19.88;16.70;;;;;;;12.36;35.64;101413.31;4989220;28;20169;-84
2022/03/03 09:49:53;;;;;;;21.77;18.20;;;;;;;12.11;34.76;101330.19;4973080;28;20046;-83
2022/03/03 09:52:20;;;;;;;20.15;16.80;;;;;;;12.32;33.79;101351.47;4988551;28;20061;-83
2022/03/03 09:54:51;;;;;;;20.98;17.65;;;;;;;12.48;34.51;101353.72;4970152;28;20468;-84
2022/03/03 09:57:18;;;;;;;22.95;17.88;;;;;;;12.16;34.84;101285.41;4969917;28;20057;-84
2022/03/03 09:59:44;;;;;;;20.05;16.67;;;;;;;12.82;34.07;101378.28;4987461;28;20047;-84
2022/03/03 10:02:13;;;;;;;30.10;17.77;;;;;;;12.35;33.88;101283.81;4976524;28;20117;-84
2022/03/03 10:04:40;;;;;;;20.15;17.60;;;;;;;12.48;33.99;101313.75;4989846;28;20050;-84
2022/03/03 10:07:10;;;;;;;23.17;17.65;;;;;;;12.24;33.85;101281.25;5008807;28;20054;-83
2022/03/03 10:12:40;;;;;;;19.33;17.15;;;;;;;12.92;33.40;101370.34;5012230;28;20053;-83
2022/03/03 10:15:13;;;;;;;26.02;18.05;;;;;;;13.17;33.26;101378.88;4982445;28;20542;-84
2022/03/03 10:17:40;;;;;;;22.70;17.85;;;;;;;13.17;33.42;101371.72;4970534;28;20058;-83
2022/03/03 10:20:07;;;;;;;22.70;17.77;;;;;;;13.20;32.65;101376.81;4970458;28;20050;-83
2022/03/03 10:22:45;;;;;;;20.60;17.85;;;;;;;13.14;32.47;101374.66;4970474;28;20092;-83
2022/03/03 10:25:15;;;;;;;27.63;17.67;;;;;;;12.95;32.57;101340.75;4978629;28;20069;-84
2022/03/03 10:27:42;;;;;;;21.85;17.77;;;;;;;13.36;32.74;101365.63;5009279;28;20050;-84
2022/03/03 10:30:09;;;;;;;20.55;17.30;;;;;;;13.43;33.64;101376.63;4981536;28;20289;-83
2022/03/03 10:32:38;;;;;;;21.75;17.40;;;;;;;13.31;34.16;101365.19;4971256;28;20057;-83
2022/03/03 10:35:19;;;;;;;25.42;18.80;;;;;;;13.18;34.63;101340.56;4970812;28;20046;-84
2022/03/03 10:38:03;;;;;;;22.10;18.23;;;;;;;13.46;34.54;101360.34;4970957;28;20492;-81
2022/03/03 10:40:31;;;;;;;23.45;18.27;;;;;;;13.40;33.87;101329.72;4971037;28;20107;-83
2022/03/03 10:43:06;;;;;;;21.15;17.90;;;;;;;12.61;33.78;101199.00;4970943;28;20077;-84
2022/03/03 10:45:58;;;;;;;24.13;20.65;;;;;;;13.28;32.64;101306.81;4987658;28;20508;-84
2022/03/03 10:48:30;;;;;;;23.92;17.30;;;;;;;13.56;34.04;101339.00;4970915;28;20166;-84
2022/03/03 10:51:00;;;;;;;20.80;18.60;;;;;;;13.58;33.26;101342.38;4970116;28;20145;-83
2022/03/03 10:53:27;;;;;;;21.05;17.13;;;;;;;13.51;33.16;101326.09;4969533;28;20046;-83
2022/03/03 10:56:04;;;;;;;24.35;19.27;;;;;;;13.68;32.61;101338.75;4986968;28;20197;-83
2022/03/03 10:58:54;;;;;;;21.33;17.75;;;;;;;13.71;32.24;101342.13;4970117;28;20086;-83
2022/03/03 11:01:29;;;;;;;22.58;18.85;;;;;;;13.60;33.45;101324.41;4986145;28;20601;-83
2022/03/03 11:03:59;;;;;;;24.17;18.05;;;;;;;12.85;33.80;101205.81;4966772;28;20141;-83
2022/03/03 11:06:29;;;;;;;26.67;20.38;;;;;;;13.48;33.75;101310.38;4968135;28;20062;-83
2022/03/03 11:08:59;;;;;;;25.02;19.45;;;;;;;13.72;33.97;101333.16;4969901;28;20051;-83
2022/03/03 11:11:27;;;;;;;20.48;17.98;;;;;;;13.76;33.21;101324.72;4986557;28;20054;-83
2022/03/03 11:13:54;;;;;;;24.15;19.00;;;;;;;13.70;33.01;101325.28;4970014;28;20046;-84
2022/03/03 11:16:25;;;;;;;23.88;19.45;;;;;;;13.25;33.39;101256.38;4972191;28;20049;-83
2022/03/03 11:18:52;;;;;;;21.75;19.42;;;;;;;13.73;33.83;101318.81;5009014;28;20045;-83
2022/03/03 11:21:20;;;;;;;24.83;19.70;;;;;;;13.48;33.98;101248.19;4992727;28;20359;-82
2022/03/03 11:23:55;;;;;;;26.55;20.13;;;;;;;13.51;33.42;101264.72;4992737;28;20421;-82